sensor_id;sensor_type;location;lat;lon;timestamp;temperature;humidity
77523;SHT31;66637;-29.628;-49.938;2023-08-06T00:01:39;18.79;86.78
77523;SHT31;66637;-29.628;-49.938;2023-08-06T00:04:10;18.81;86.79
77523;SHT31;66637;-29.628;-49.938;2023-08-06T00:06:41;18.78;86.75
77523;SHT31;66637;-29.628;-49.938;2023-08-06T00:09:12;18.81;86.86
77523;SHT31;66637;-29.628;-49.938;2023-08-06T00:11:43;18.82;86.84
77523;SHT31;66637;-29.628;-49.938;2023-08-06T00:14:17;18.82;86.73
77523;SHT31;66637;-29.628;-49.938;2023-08-06T00:16:49;18.84;86.70
77523;SHT31;66637;-29.628;-49.938;2023-08-06T00:19:20;18.85;86.64
77523;SHT31;66637;-29.628;-49.938;2023-08-06T00:21:55;18.87;86.58
77523;SHT31;66637;-29.628;-49.938;2023-08-06T00:24:42;18.85;86.61
77523;SHT31;66637;-29.628;-49.938;2023-08-06T00:27:13;18.85;86.53
77523;SHT31;66637;-29.628;-49.938;2023-08-06T00:29:44;18.84;86.67
77523;SHT31;66637;-29.628;-49.938;2023-08-06T00:32:18;18.88;86.65
77523;SHT31;66637;-29.628;-49.938;2023-08-06T00:34:49;18.88;86.73
77523;SHT31;66637;-29.628;-49.938;2023-08-06T00:37:20;18.81;86.79
77523;SHT31;66637;-29.628;-49.938;2023-08-06T00:39:51;18.88;86.80
77523;SHT31;66637;-29.628;-49.938;2023-08-06T00:42:22;18.91;86.82
77523;SHT31;66637;-29.628;-49.938;2023-08-06T00:44:53;18.91;86.77
77523;SHT31;66637;-29.628;-49.938;2023-08-06T00:47:25;18.91;86.83
77523;SHT31;66637;-29.628;-49.938;2023-08-06T00:49:56;18.92;86.80
77523;SHT31;66637;-29.628;-49.938;2023-08-06T00:52:28;18.95;86.69
77523;SHT31;66637;-29.628;-49.938;2023-08-06T00:55:00;18.96;86.69
77523;SHT31;66637;-29.628;-49.938;2023-08-06T00:57:32;18.95;86.65
77523;SHT31;66637;-29.628;-49.938;2023-08-06T01:00:03;18.95;86.71
77523;SHT31;66637;-29.628;-49.938;2023-08-06T01:06:06;18.99;86.67
77523;SHT31;66637;-29.628;-49.938;2023-08-06T01:08:58;19.02;86.71
77523;SHT31;66637;-29.628;-49.938;2023-08-06T01:12:05;19.05;86.71
77523;SHT31;66637;-29.628;-49.938;2023-08-06T01:14:53;19.03;86.67
77523;SHT31;66637;-29.628;-49.938;2023-08-06T01:17:45;19.05;86.68
77523;SHT31;66637;-29.628;-49.938;2023-08-06T01:20:18;19.02;86.69
77523;SHT31;66637;-29.628;-49.938;2023-08-06T01:22:56;19.06;86.65
77523;SHT31;66637;-29.628;-49.938;2023-08-06T01:25:36;19.02;86.73
77523;SHT31;66637;-29.628;-49.938;2023-08-06T01:31:31;19.06;86.68
77523;SHT31;66637;-29.628;-49.938;2023-08-06T01:34:10;19.08;86.68
77523;SHT31;66637;-29.628;-49.938;2023-08-06T01:36:44;19.10;86.77
77523;SHT31;66637;-29.628;-49.938;2023-08-06T01:39:15;19.10;86.74
77523;SHT31;66637;-29.628;-49.938;2023-08-06T01:41:48;19.08;86.80
77523;SHT31;66637;-29.628;-49.938;2023-08-06T01:44:20;19.09;86.81
77523;SHT31;66637;-29.628;-49.938;2023-08-06T01:46:51;19.08;86.79
77523;SHT31;66637;-29.628;-49.938;2023-08-06T01:49:22;19.10;86.86
77523;SHT31;66637;-29.628;-49.938;2023-08-06T01:51:54;19.13;86.85
77523;SHT31;66637;-29.628;-49.938;2023-08-06T01:54:25;19.13;86.86
77523;SHT31;66637;-29.628;-49.938;2023-08-06T01:56:56;19.10;86.79
77523;SHT31;66637;-29.628;-49.938;2023-08-06T01:59:29;19.10;86.82
77523;SHT31;66637;-29.628;-49.938;2023-08-06T02:02:02;19.10;86.80
77523;SHT31;66637;-29.628;-49.938;2023-08-06T02:04:34;19.12;86.73
77523;SHT31;66637;-29.628;-49.938;2023-08-06T02:07:08;19.18;86.70
77523;SHT31;66637;-29.628;-49.938;2023-08-06T02:09:38;19.20;86.63
77523;SHT31;66637;-29.628;-49.938;2023-08-06T02:12:11;19.26;86.56
77523;SHT31;66637;-29.628;-49.938;2023-08-06T02:14:43;19.24;86.55
77523;SHT31;66637;-29.628;-49.938;2023-08-06T02:17:14;19.30;86.40
77523;SHT31;66637;-29.628;-49.938;2023-08-06T02:19:45;19.32;86.20
77523;SHT31;66637;-29.628;-49.938;2023-08-06T02:22:16;19.39;86.12
77523;SHT31;66637;-29.628;-49.938;2023-08-06T02:24:55;19.43;85.97
77523;SHT31;66637;-29.628;-49.938;2023-08-06T02:27:27;19.46;85.93
77523;SHT31;66637;-29.628;-49.938;2023-08-06T02:29:58;19.47;85.82
77523;SHT31;66637;-29.628;-49.938;2023-08-06T02:32:48;19.49;85.84
77523;SHT31;66637;-29.628;-49.938;2023-08-06T02:35:19;19.47;85.76
77523;SHT31;66637;-29.628;-49.938;2023-08-06T02:37:49;19.47;85.74
77523;SHT31;66637;-29.628;-49.938;2023-08-06T02:40:20;19.47;85.75
77523;SHT31;66637;-29.628;-49.938;2023-08-06T02:42:52;19.49;85.70
77523;SHT31;66637;-29.628;-49.938;2023-08-06T02:45:23;19.47;85.64
77523;SHT31;66637;-29.628;-49.938;2023-08-06T02:47:53;19.45;85.62
77523;SHT31;66637;-29.628;-49.938;2023-08-06T02:50:25;19.46;85.67
77523;SHT31;66637;-29.628;-49.938;2023-08-06T02:52:56;19.43;85.60
77523;SHT31;66637;-29.628;-49.938;2023-08-06T02:55:27;19.43;85.63
77523;SHT31;66637;-29.628;-49.938;2023-08-06T02:58:04;19.42;85.69
77523;SHT31;66637;-29.628;-49.938;2023-08-06T03:00:41;19.37;85.72
77523;SHT31;66637;-29.628;-49.938;2023-08-06T03:03:15;19.33;85.80
77523;SHT31;66637;-29.628;-49.938;2023-08-06T03:05:59;19.27;85.78
77523;SHT31;66637;-29.628;-49.938;2023-08-06T03:08:39;19.23;85.85
77523;SHT31;66637;-29.628;-49.938;2023-08-06T03:11:12;19.15;86.01
77523;SHT31;66637;-29.628;-49.938;2023-08-06T03:13:43;19.13;86.11
77523;SHT31;66637;-29.628;-49.938;2023-08-06T03:16:18;19.05;86.27
77523;SHT31;66637;-29.628;-49.938;2023-08-06T03:18:49;19.05;86.39
77523;SHT31;66637;-29.628;-49.938;2023-08-06T03:21:21;19.00;86.44
77523;SHT31;66637;-29.628;-49.938;2023-08-06T03:23:52;19.00;86.46
77523;SHT31;66637;-29.628;-49.938;2023-08-06T03:26:27;19.06;86.44
77523;SHT31;66637;-29.628;-49.938;2023-08-06T03:28:58;19.05;86.49
77523;SHT31;66637;-29.628;-49.938;2023-08-06T03:31:32;19.08;86.34
77523;SHT31;66637;-29.628;-49.938;2023-08-06T03:34:04;19.08;86.40
77523;SHT31;66637;-29.628;-49.938;2023-08-06T03:36:35;19.09;86.32
77523;SHT31;66637;-29.628;-49.938;2023-08-06T03:39:13;19.09;86.37
77523;SHT31;66637;-29.628;-49.938;2023-08-06T03:41:44;19.12;86.27
77523;SHT31;66637;-29.628;-49.938;2023-08-06T03:44:18;19.12;86.30
77523;SHT31;66637;-29.628;-49.938;2023-08-06T03:46:51;19.10;86.28
77523;SHT31;66637;-29.628;-49.938;2023-08-06T03:49:21;19.13;86.25
77523;SHT31;66637;-29.628;-49.938;2023-08-06T03:51:53;19.13;86.13
77523;SHT31;66637;-29.628;-49.938;2023-08-06T03:54:26;19.13;86.09
77523;SHT31;66637;-29.628;-49.938;2023-08-06T03:56:56;19.18;86.05
77523;SHT31;66637;-29.628;-49.938;2023-08-06T03:59:32;19.20;85.92
77523;SHT31;66637;-29.628;-49.938;2023-08-06T04:02:05;19.19;85.89
77523;SHT31;66637;-29.628;-49.938;2023-08-06T04:04:37;19.19;85.79
77523;SHT31;66637;-29.628;-49.938;2023-08-06T04:07:07;19.20;85.83
77523;SHT31;66637;-29.628;-49.938;2023-08-06T04:09:56;19.24;85.84
77523;SHT31;66637;-29.628;-49.938;2023-08-06T04:12:29;19.22;85.71
77523;SHT31;66637;-29.628;-49.938;2023-08-06T04:15:01;19.27;85.66
77523;SHT31;66637;-29.628;-49.938;2023-08-06T04:17:32;19.23;85.50
77523;SHT31;66637;-29.628;-49.938;2023-08-06T04:20:06;19.24;85.51
77523;SHT31;66637;-29.628;-49.938;2023-08-06T04:22:37;19.23;85.53
77523;SHT31;66637;-29.628;-49.938;2023-08-06T04:25:11;19.24;85.56
77523;SHT31;66637;-29.628;-49.938;2023-08-06T04:27:45;19.27;85.50
77523;SHT31;66637;-29.628;-49.938;2023-08-06T04:30:17;19.27;85.51
77523;SHT31;66637;-29.628;-49.938;2023-08-06T04:32:50;19.30;85.48
77523;SHT31;66637;-29.628;-49.938;2023-08-06T04:35:21;19.30;85.39
77523;SHT31;66637;-29.628;-49.938;2023-08-06T04:38:00;19.32;85.41
77523;SHT31;66637;-29.628;-49.938;2023-08-06T04:40:35;19.32;85.46
77523;SHT31;66637;-29.628;-49.938;2023-08-06T04:43:08;19.30;85.44
77523;SHT31;66637;-29.628;-49.938;2023-08-06T04:45:46;19.27;85.39
77523;SHT31;66637;-29.628;-49.938;2023-08-06T04:48:22;19.29;85.41
77523;SHT31;66637;-29.628;-49.938;2023-08-06T04:50:54;19.29;85.44
77523;SHT31;66637;-29.628;-49.938;2023-08-06T04:53:26;19.26;85.48
77523;SHT31;66637;-29.628;-49.938;2023-08-06T04:55:58;19.24;85.44
77523;SHT31;66637;-29.628;-49.938;2023-08-06T04:58:29;19.24;85.44
77523;SHT31;66637;-29.628;-49.938;2023-08-06T05:01:01;19.20;85.46
77523;SHT31;66637;-29.628;-49.938;2023-08-06T05:03:34;19.20;85.55
77523;SHT31;66637;-29.628;-49.938;2023-08-06T05:06:05;19.16;85.58
77523;SHT31;66637;-29.628;-49.938;2023-08-06T05:08:37;19.12;85.67
77523;SHT31;66637;-29.628;-49.938;2023-08-06T05:11:09;19.12;85.79
77523;SHT31;66637;-29.628;-49.938;2023-08-06T05:13:40;19.09;85.80
77523;SHT31;66637;-29.628;-49.938;2023-08-06T05:16:13;19.06;85.90
77523;SHT31;66637;-29.628;-49.938;2023-08-06T05:18:44;19.09;85.90
77523;SHT31;66637;-29.628;-49.938;2023-08-06T05:21:15;19.09;85.83
77523;SHT31;66637;-29.628;-49.938;2023-08-06T05:23:48;19.12;85.74
77523;SHT31;66637;-29.628;-49.938;2023-08-06T05:26:20;19.09;85.87
77523;SHT31;66637;-29.628;-49.938;2023-08-06T05:28:51;19.09;85.95
77523;SHT31;66637;-29.628;-49.938;2023-08-06T05:31:23;19.10;85.92
77523;SHT31;66637;-29.628;-49.938;2023-08-06T05:33:55;19.08;85.89
77523;SHT31;66637;-29.628;-49.938;2023-08-06T05:36:26;19.06;85.93
77523;SHT31;66637;-29.628;-49.938;2023-08-06T05:39:06;19.05;86.02
77523;SHT31;66637;-29.628;-49.938;2023-08-06T05:42:15;19.03;85.90
77523;SHT31;66637;-29.628;-49.938;2023-08-06T05:44:50;19.03;86.00
77523;SHT31;66637;-29.628;-49.938;2023-08-06T05:47:24;19.00;86.08
77523;SHT31;66637;-29.628;-49.938;2023-08-06T05:49:56;18.99;86.05
77523;SHT31;66637;-29.628;-49.938;2023-08-06T05:52:27;18.94;86.12
77523;SHT31;66637;-29.628;-49.938;2023-08-06T05:54:58;18.92;86.17
77523;SHT31;66637;-29.628;-49.938;2023-08-06T05:57:31;18.92;86.28
77523;SHT31;66637;-29.628;-49.938;2023-08-06T06:00:04;18.88;86.34
77523;SHT31;66637;-29.628;-49.938;2023-08-06T06:02:40;18.89;86.39
77523;SHT31;66637;-29.628;-49.938;2023-08-06T06:05:13;18.87;86.50
77523;SHT31;66637;-29.628;-49.938;2023-08-06T06:07:48;18.87;86.57
77523;SHT31;66637;-29.628;-49.938;2023-08-06T06:10:22;18.84;86.58
77523;SHT31;66637;-29.628;-49.938;2023-08-06T06:12:57;18.81;86.59
77523;SHT31;66637;-29.628;-49.938;2023-08-06T06:15:29;18.81;86.58
77523;SHT31;66637;-29.628;-49.938;2023-08-06T06:18:03;18.78;86.64
77523;SHT31;66637;-29.628;-49.938;2023-08-06T06:20:34;18.79;86.67
77523;SHT31;66637;-29.628;-49.938;2023-08-06T06:23:15;18.78;86.74
77523;SHT31;66637;-29.628;-49.938;2023-08-06T06:26:15;18.76;86.68
77523;SHT31;66637;-29.628;-49.938;2023-08-06T06:28:48;18.71;86.72
77523;SHT31;66637;-29.628;-49.938;2023-08-06T06:31:23;18.69;86.77
77523;SHT31;66637;-29.628;-49.938;2023-08-06T06:33:55;18.67;86.75
77523;SHT31;66637;-29.628;-49.938;2023-08-06T06:36:27;18.67;86.84
77523;SHT31;66637;-29.628;-49.938;2023-08-06T06:39:00;18.67;86.95
77523;SHT31;66637;-29.628;-49.938;2023-08-06T06:41:31;18.62;86.88
77523;SHT31;66637;-29.628;-49.938;2023-08-06T06:44:17;18.64;86.91
77523;SHT31;66637;-29.628;-49.938;2023-08-06T06:47:38;18.64;86.94
77523;SHT31;66637;-29.628;-49.938;2023-08-06T06:50:09;18.61;86.97
77523;SHT31;66637;-29.628;-49.938;2023-08-06T06:52:46;18.57;87.05
77523;SHT31;66637;-29.628;-49.938;2023-08-06T06:55:18;18.54;87.03
77523;SHT31;66637;-29.628;-49.938;2023-08-06T06:57:49;18.52;87.06
77523;SHT31;66637;-29.628;-49.938;2023-08-06T07:00:26;18.51;87.08
77523;SHT31;66637;-29.628;-49.938;2023-08-06T07:02:57;18.47;87.02
77523;SHT31;66637;-29.628;-49.938;2023-08-06T07:05:27;18.44;87.13
77523;SHT31;66637;-29.628;-49.938;2023-08-06T07:07:57;18.44;87.10
77523;SHT31;66637;-29.628;-49.938;2023-08-06T07:10:29;18.43;87.07
77523;SHT31;66637;-29.628;-49.938;2023-08-06T07:12:59;18.41;87.16
77523;SHT31;66637;-29.628;-49.938;2023-08-06T07:15:32;18.38;87.13
77523;SHT31;66637;-29.628;-49.938;2023-08-06T07:18:03;18.34;87.26
77523;SHT31;66637;-29.628;-49.938;2023-08-06T07:20:34;18.36;87.26
77523;SHT31;66637;-29.628;-49.938;2023-08-06T07:23:04;18.34;87.29
77523;SHT31;66637;-29.628;-49.938;2023-08-06T07:25:36;18.34;87.37
77523;SHT31;66637;-29.628;-49.938;2023-08-06T07:28:07;18.34;87.28
77523;SHT31;66637;-29.628;-49.938;2023-08-06T07:30:42;18.33;87.32
77523;SHT31;66637;-29.628;-49.938;2023-08-06T07:33:12;18.28;87.24
77523;SHT31;66637;-29.628;-49.938;2023-08-06T07:35:43;18.30;87.22
77523;SHT31;66637;-29.628;-49.938;2023-08-06T07:38:36;18.34;87.46
77523;SHT31;66637;-29.628;-49.938;2023-08-06T07:41:36;18.30;87.41
77523;SHT31;66637;-29.628;-49.938;2023-08-06T07:44:06;18.27;87.38
77523;SHT31;66637;-29.628;-49.938;2023-08-06T07:46:37;18.31;87.35
77523;SHT31;66637;-29.628;-49.938;2023-08-06T07:49:10;18.28;87.46
77523;SHT31;66637;-29.628;-49.938;2023-08-06T07:51:41;18.24;87.43
77523;SHT31;66637;-29.628;-49.938;2023-08-06T07:54:13;18.24;87.55
77523;SHT31;66637;-29.628;-49.938;2023-08-06T07:56:43;18.24;87.42
77523;SHT31;66637;-29.628;-49.938;2023-08-06T07:59:18;18.24;87.50
77523;SHT31;66637;-29.628;-49.938;2023-08-06T08:01:51;18.24;87.54
77523;SHT31;66637;-29.628;-49.938;2023-08-06T08:04:27;18.23;87.48
77523;SHT31;66637;-29.628;-49.938;2023-08-06T08:07:00;18.21;87.58
77523;SHT31;66637;-29.628;-49.938;2023-08-06T08:09:31;18.21;87.53
77523;SHT31;66637;-29.628;-49.938;2023-08-06T08:12:03;18.18;87.61
77523;SHT31;66637;-29.628;-49.938;2023-08-06T08:14:36;18.20;87.66
77523;SHT31;66637;-29.628;-49.938;2023-08-06T08:17:07;18.17;87.65
77523;SHT31;66637;-29.628;-49.938;2023-08-06T08:19:39;18.16;87.71
77523;SHT31;66637;-29.628;-49.938;2023-08-06T08:22:10;18.17;87.80
77523;SHT31;66637;-29.628;-49.938;2023-08-06T08:24:41;18.16;87.76
77523;SHT31;66637;-29.628;-49.938;2023-08-06T08:27:17;18.11;87.88
77523;SHT31;66637;-29.628;-49.938;2023-08-06T08:30:03;18.08;87.91
77523;SHT31;66637;-29.628;-49.938;2023-08-06T08:32:36;18.13;88.07
77523;SHT31;66637;-29.628;-49.938;2023-08-06T08:35:07;18.14;88.00
77523;SHT31;66637;-29.628;-49.938;2023-08-06T08:37:39;18.08;88.10
77523;SHT31;66637;-29.628;-49.938;2023-08-06T08:40:18;18.11;88.12
77523;SHT31;66637;-29.628;-49.938;2023-08-06T08:43:10;18.11;88.06
77523;SHT31;66637;-29.628;-49.938;2023-08-06T08:45:58;18.11;88.10
77523;SHT31;66637;-29.628;-49.938;2023-08-06T08:48:50;18.07;88.06
77523;SHT31;66637;-29.628;-49.938;2023-08-06T08:51:28;18.14;88.01
77523;SHT31;66637;-29.628;-49.938;2023-08-06T08:53:59;18.10;88.02
77523;SHT31;66637;-29.628;-49.938;2023-08-06T08:56:32;18.11;88.09
77523;SHT31;66637;-29.628;-49.938;2023-08-06T08:59:07;18.08;87.93
77523;SHT31;66637;-29.628;-49.938;2023-08-06T09:01:38;18.08;88.02
77523;SHT31;66637;-29.628;-49.938;2023-08-06T09:04:12;18.03;87.99
77523;SHT31;66637;-29.628;-49.938;2023-08-06T09:06:51;18.00;88.10
77523;SHT31;66637;-29.628;-49.938;2023-08-06T09:09:49;18.00;88.04
77523;SHT31;66637;-29.628;-49.938;2023-08-06T09:12:22;18.01;88.10
77523;SHT31;66637;-29.628;-49.938;2023-08-06T09:15:27;18.04;88.09
77523;SHT31;66637;-29.628;-49.938;2023-08-06T09:17:57;18.00;88.04
77523;SHT31;66637;-29.628;-49.938;2023-08-06T09:20:29;18.00;87.89
77523;SHT31;66637;-29.628;-49.938;2023-08-06T09:23:08;18.01;88.10
77523;SHT31;66637;-29.628;-49.938;2023-08-06T09:25:41;17.97;88.17
77523;SHT31;66637;-29.628;-49.938;2023-08-06T09:28:17;18.00;88.16
77523;SHT31;66637;-29.628;-49.938;2023-08-06T09:34:46;17.96;88.11
77523;SHT31;66637;-29.628;-49.938;2023-08-06T09:37:40;17.93;88.01
77523;SHT31;66637;-29.628;-49.938;2023-08-06T09:40:40;17.90;87.91
77523;SHT31;66637;-29.628;-49.938;2023-08-06T09:43:31;17.86;87.83
77523;SHT31;66637;-29.628;-49.938;2023-08-06T09:46:28;17.90;87.87
77523;SHT31;66637;-29.628;-49.938;2023-08-06T09:49:02;17.89;87.83
77523;SHT31;66637;-29.628;-49.938;2023-08-06T09:51:34;17.89;87.87
77523;SHT31;66637;-29.628;-49.938;2023-08-06T09:54:08;17.94;87.93
77523;SHT31;66637;-29.628;-49.938;2023-08-06T09:57:01;17.93;87.99
77523;SHT31;66637;-29.628;-49.938;2023-08-06T10:00:18;17.91;87.84
77523;SHT31;66637;-29.628;-49.938;2023-08-06T10:03:09;17.93;87.93
77523;SHT31;66637;-29.628;-49.938;2023-08-06T10:05:46;17.93;87.91
77523;SHT31;66637;-29.628;-49.938;2023-08-06T10:08:19;17.91;87.84
77523;SHT31;66637;-29.628;-49.938;2023-08-06T10:10:50;17.91;87.90
77523;SHT31;66637;-29.628;-49.938;2023-08-06T10:13:23;17.96;88.10
77523;SHT31;66637;-29.628;-49.938;2023-08-06T10:15:54;17.97;88.03
77523;SHT31;66637;-29.628;-49.938;2023-08-06T10:18:26;17.93;88.10
77523;SHT31;66637;-29.628;-49.938;2023-08-06T10:21:00;17.91;88.22
77523;SHT31;66637;-29.628;-49.938;2023-08-06T10:23:35;17.93;88.47
77523;SHT31;66637;-29.628;-49.938;2023-08-06T10:26:08;17.93;88.40
77523;SHT31;66637;-29.628;-49.938;2023-08-06T10:28:39;17.93;88.51
77523;SHT31;66637;-29.628;-49.938;2023-08-06T10:31:12;17.89;88.57
77523;SHT31;66637;-29.628;-49.938;2023-08-06T10:33:48;17.89;88.66
77523;SHT31;66637;-29.628;-49.938;2023-08-06T10:36:19;17.87;88.76
77523;SHT31;66637;-29.628;-49.938;2023-08-06T10:38:52;17.90;88.88
77523;SHT31;66637;-29.628;-49.938;2023-08-06T10:44:11;17.96;88.94
77523;SHT31;66637;-29.628;-49.938;2023-08-06T10:46:43;17.97;88.70
77523;SHT31;66637;-29.628;-49.938;2023-08-06T10:49:15;18.03;88.65
77523;SHT31;66637;-29.628;-49.938;2023-08-06T10:51:50;18.10;88.44
77523;SHT31;66637;-29.628;-49.938;2023-08-06T10:54:21;18.17;88.28
77523;SHT31;66637;-29.628;-49.938;2023-08-06T10:56:55;18.44;87.69
77523;SHT31;66637;-29.628;-49.938;2023-08-06T10:59:27;18.57;87.37
77523;SHT31;66637;-29.628;-49.938;2023-08-06T11:01:58;18.43;87.56
77523;SHT31;66637;-29.628;-49.938;2023-08-06T11:04:35;18.36;87.71
77523;SHT31;66637;-29.628;-49.938;2023-08-06T11:07:07;18.33;87.82
77523;SHT31;66637;-29.628;-49.938;2023-08-06T11:09:37;18.41;87.68
77523;SHT31;66637;-29.628;-49.938;2023-08-06T11:12:12;18.72;87.02
77523;SHT31;66637;-29.628;-49.938;2023-08-06T11:14:51;18.75;86.81
77523;SHT31;66637;-29.628;-49.938;2023-08-06T11:17:22;18.71;87.21
77523;SHT31;66637;-29.628;-49.938;2023-08-06T11:19:59;18.87;86.82
77523;SHT31;66637;-29.628;-49.938;2023-08-06T11:22:31;18.89;86.89
77523;SHT31;66637;-29.628;-49.938;2023-08-06T11:25:06;18.96;86.65
77523;SHT31;66637;-29.628;-49.938;2023-08-06T11:27:37;18.98;86.33
77523;SHT31;66637;-29.628;-49.938;2023-08-06T11:30:11;19.06;86.24
77523;SHT31;66637;-29.628;-49.938;2023-08-06T11:32:46;19.12;86.04
77523;SHT31;66637;-29.628;-49.938;2023-08-06T11:35:18;19.02;86.25
77523;SHT31;66637;-29.628;-49.938;2023-08-06T11:37:49;19.08;86.14
77523;SHT31;66637;-29.628;-49.938;2023-08-06T11:40:20;18.88;86.13
77523;SHT31;66637;-29.628;-49.938;2023-08-06T11:42:55;19.02;85.70
77523;SHT31;66637;-29.628;-49.938;2023-08-06T11:45:26;18.99;85.56
77523;SHT31;66637;-29.628;-49.938;2023-08-06T11:47:57;19.06;85.63
77523;SHT31;66637;-29.628;-49.938;2023-08-06T11:50:29;19.27;85.07
77523;SHT31;66637;-29.628;-49.938;2023-08-06T11:53:01;19.37;85.12
77523;SHT31;66637;-29.628;-49.938;2023-08-06T11:55:42;19.49;84.89
77523;SHT31;66637;-29.628;-49.938;2023-08-06T11:58:25;19.56;84.51
77523;SHT31;66637;-29.628;-49.938;2023-08-06T12:00:56;19.54;84.47
77523;SHT31;66637;-29.628;-49.938;2023-08-06T12:03:29;19.64;83.84
77523;SHT31;66637;-29.628;-49.938;2023-08-06T12:06:01;19.63;83.89
77523;SHT31;66637;-29.628;-49.938;2023-08-06T12:08:35;19.63;83.66
77523;SHT31;66637;-29.628;-49.938;2023-08-06T12:11:10;19.77;83.42
77523;SHT31;66637;-29.628;-49.938;2023-08-06T12:13:54;20.04;83.40
77523;SHT31;66637;-29.628;-49.938;2023-08-06T12:16:32;19.98;82.99
77523;SHT31;66637;-29.628;-49.938;2023-08-06T12:19:09;19.93;82.76
77523;SHT31;66637;-29.628;-49.938;2023-08-06T12:21:40;20.08;82.91
77523;SHT31;66637;-29.628;-49.938;2023-08-06T12:27:28;20.11;82.72
77523;SHT31;66637;-29.628;-49.938;2023-08-06T12:30:02;20.03;82.72
77523;SHT31;66637;-29.628;-49.938;2023-08-06T12:32:38;20.11;82.46
77523;SHT31;66637;-29.628;-49.938;2023-08-06T12:35:13;20.11;82.48
77523;SHT31;66637;-29.628;-49.938;2023-08-06T12:37:46;20.07;82.44
77523;SHT31;66637;-29.628;-49.938;2023-08-06T12:40:17;20.01;82.54
77523;SHT31;66637;-29.628;-49.938;2023-08-06T12:43:03;20.08;82.31
77523;SHT31;66637;-29.628;-49.938;2023-08-06T12:45:34;20.10;82.47
77523;SHT31;66637;-29.628;-49.938;2023-08-06T12:48:04;20.18;82.28
77523;SHT31;66637;-29.628;-49.938;2023-08-06T12:50:36;20.28;81.93
77523;SHT31;66637;-29.628;-49.938;2023-08-06T12:53:06;20.24;82.02
77523;SHT31;66637;-29.628;-49.938;2023-08-06T12:55:53;20.08;82.17
77523;SHT31;66637;-29.628;-49.938;2023-08-06T12:58:34;20.14;82.42
77523;SHT31;66637;-29.628;-49.938;2023-08-06T13:01:06;20.44;81.75
77523;SHT31;66637;-29.628;-49.938;2023-08-06T13:03:52;20.59;81.35
77523;SHT31;66637;-29.628;-49.938;2023-08-06T13:06:43;20.79;80.95
77523;SHT31;66637;-29.628;-49.938;2023-08-06T13:09:15;20.69;81.41
77523;SHT31;66637;-29.628;-49.938;2023-08-06T13:11:47;20.75;80.73
77523;SHT31;66637;-29.628;-49.938;2023-08-06T13:14:21;20.95;80.62
77523;SHT31;66637;-29.628;-49.938;2023-08-06T13:16:53;21.00;80.02
77523;SHT31;66637;-29.628;-49.938;2023-08-06T13:19:26;21.14;79.53
77523;SHT31;66637;-29.628;-49.938;2023-08-06T13:22:03;21.20;80.05
77523;SHT31;66637;-29.628;-49.938;2023-08-06T13:24:40;21.23;79.09
77523;SHT31;66637;-29.628;-49.938;2023-08-06T13:27:14;21.34;79.09
77523;SHT31;66637;-29.628;-49.938;2023-08-06T13:29:45;21.60;78.73
77523;SHT31;66637;-29.628;-49.938;2023-08-06T13:32:16;21.58;78.52
77523;SHT31;66637;-29.628;-49.938;2023-08-06T13:34:59;21.80;78.47
77523;SHT31;66637;-29.628;-49.938;2023-08-06T13:37:39;21.77;77.98
77523;SHT31;66637;-29.628;-49.938;2023-08-06T13:40:11;21.60;77.90
77523;SHT31;66637;-29.628;-49.938;2023-08-06T13:42:42;21.54;78.53
77523;SHT31;66637;-29.628;-49.938;2023-08-06T13:45:13;21.65;78.28
77523;SHT31;66637;-29.628;-49.938;2023-08-06T13:47:47;21.65;78.22
77523;SHT31;66637;-29.628;-49.938;2023-08-06T13:50:19;21.61;77.92
77523;SHT31;66637;-29.628;-49.938;2023-08-06T13:52:53;21.68;77.88
77523;SHT31;66637;-29.628;-49.938;2023-08-06T13:55:25;21.71;77.94
77523;SHT31;66637;-29.628;-49.938;2023-08-06T13:57:57;21.65;77.85
77523;SHT31;66637;-29.628;-49.938;2023-08-06T14:00:27;21.74;78.25
77523;SHT31;66637;-29.628;-49.938;2023-08-06T14:02:58;21.80;77.74
77523;SHT31;66637;-29.628;-49.938;2023-08-06T14:05:30;21.80;77.74
77523;SHT31;66637;-29.628;-49.938;2023-08-06T14:08:01;21.82;78.09
77523;SHT31;66637;-29.628;-49.938;2023-08-06T14:10:32;21.98;77.47
77523;SHT31;66637;-29.628;-49.938;2023-08-06T14:13:07;21.90;77.14
77523;SHT31;66637;-29.628;-49.938;2023-08-06T14:15:38;21.87;77.18
77523;SHT31;66637;-29.628;-49.938;2023-08-06T14:18:14;21.77;77.75
77523;SHT31;66637;-29.628;-49.938;2023-08-06T14:20:46;21.91;77.14
77523;SHT31;66637;-29.628;-49.938;2023-08-06T14:23:17;21.87;77.38
77523;SHT31;66637;-29.628;-49.938;2023-08-06T14:25:52;21.97;76.98
77523;SHT31;66637;-29.628;-49.938;2023-08-06T14:28:29;21.87;77.46
77523;SHT31;66637;-29.628;-49.938;2023-08-06T14:31:00;21.74;77.20
77523;SHT31;66637;-29.628;-49.938;2023-08-06T14:33:31;21.48;77.47
77523;SHT31;66637;-29.628;-49.938;2023-08-06T14:36:06;21.62;77.71
77523;SHT31;66637;-29.628;-49.938;2023-08-06T14:38:41;21.81;77.22
77523;SHT31;66637;-29.628;-49.938;2023-08-06T14:41:29;21.85;76.90
77523;SHT31;66637;-29.628;-49.938;2023-08-06T14:44:00;21.82;76.98
77523;SHT31;66637;-29.628;-49.938;2023-08-06T14:46:33;21.94;77.12
77523;SHT31;66637;-29.628;-49.938;2023-08-06T14:49:04;21.87;76.75
77523;SHT31;66637;-29.628;-49.938;2023-08-06T14:51:36;21.87;76.97
77523;SHT31;66637;-29.628;-49.938;2023-08-06T14:54:08;21.80;77.05
77523;SHT31;66637;-29.628;-49.938;2023-08-06T14:56:40;21.92;76.88
77523;SHT31;66637;-29.628;-49.938;2023-08-06T14:59:10;22.12;76.46
77523;SHT31;66637;-29.628;-49.938;2023-08-06T15:01:40;22.09;76.47
77523;SHT31;66637;-29.628;-49.938;2023-08-06T15:04:12;22.11;76.41
77523;SHT31;66637;-29.628;-49.938;2023-08-06T15:06:44;22.13;76.27
77523;SHT31;66637;-29.628;-49.938;2023-08-06T15:09:16;22.09;76.45
77523;SHT31;66637;-29.628;-49.938;2023-08-06T15:11:50;22.19;76.12
77523;SHT31;66637;-29.628;-49.938;2023-08-06T15:14:30;22.13;76.65
77523;SHT31;66637;-29.628;-49.938;2023-08-06T15:17:00;22.26;76.49
77523;SHT31;66637;-29.628;-49.938;2023-08-06T15:19:31;22.33;75.80
77523;SHT31;66637;-29.628;-49.938;2023-08-06T15:22:03;22.35;75.63
77523;SHT31;66637;-29.628;-49.938;2023-08-06T15:24:34;22.32;75.89
77523;SHT31;66637;-29.628;-49.938;2023-08-06T15:27:11;22.21;75.90
77523;SHT31;66637;-29.628;-49.938;2023-08-06T15:29:45;22.15;75.80
77523;SHT31;66637;-29.628;-49.938;2023-08-06T15:32:17;22.15;76.12
77523;SHT31;66637;-29.628;-49.938;2023-08-06T15:34:50;22.19;76.33
77523;SHT31;66637;-29.628;-49.938;2023-08-06T15:37:23;22.29;75.75
77523;SHT31;66637;-29.628;-49.938;2023-08-06T15:39:59;22.41;75.77
77523;SHT31;66637;-29.628;-49.938;2023-08-06T15:42:29;22.49;74.97
77523;SHT31;66637;-29.628;-49.938;2023-08-06T15:45:01;22.52;75.20
77523;SHT31;66637;-29.628;-49.938;2023-08-06T15:47:34;22.35;75.65
77523;SHT31;66637;-29.628;-49.938;2023-08-06T15:50:11;22.39;76.07